New London, Wisconsin
Current Conditions -  °F | °C
As of 5:55 PM on Monday 22 Dec 2014 (Local Time) from KPCZ Reporting Station
Light Snow Light Snow  
Wind Chill: 28°   Ceiling: 600
Heat Index: 35°   Visibility: 1.5mi
Dew Point: 33°   Wind: 8mph
Humidity: 92%   Direction: 60°ENE
Pressure: 29.74"   Gusts: NA
Location:  44.39°N, 88.74°W
Report Text: KPCZ 222355Z AUTO 06007KT 1 1/2SM -SN OVC006 02/00 A2974 RMK AO2 P0001 60001 T00150004 10040 20015
Loading
Personal Weather Stations






























Interactive Weather Map New forecast layout! Learn more

10-Day Weather Forecast

Advertisements
Track Severe Weather on mobile